Time;durP1;ratioP1;P1;durP2;ratioP2;P2;SDS_P1;SDS_P2;PMS_P1;PMS_P2;Temp;Humidity;BMP_temperature;BMP_pressure;BME280_temperature;BME280_humidity;BME280_pressure;Samples;Min_cycle;Max_cycle;Signal;HPM_P1;HPM_P2
2022/12/20 00:02:33;;;;;;;24.65;11.40;;;;;;;;;;10334839;28;20026;-59
2022/12/20 00:07:33;;;;;;;21.58;11.05;;;;;;;;;;10341948;28;20026;-58
2022/12/20 00:12:34;;;;;;;20.15;10.88;;;;;;;;;;10327387;28;20504;-58
2022/12/20 00:17:35;;;;;;;17.70;10.52;;;;;;;;;;10325912;28;20041;-58
2022/12/20 00:22:35;;;;;;;24.90;11.18;;;;;;;;;;10326502;28;20037;-58
2022/12/20 00:27:36;;;;;;;16.40;9.50;;;;;;;;;;10329814;28;20046;-62
2022/12/20 00:32:36;;;;;;;17.25;10.38;;;;;;;;;;10320320;28;20657;-58
2022/12/20 00:37:37;;;;;;;17.25;10.30;;;;;;;;;;10330527;28;20036;-58
2022/12/20 00:42:38;;;;;;;21.80;10.55;;;;;;;;;;10320802;28;20031;-57
2022/12/20 00:47:39;;;;;;;14.88;9.95;;;;;;;;;;10324835;28;20438;-58
2022/12/20 00:52:39;;;;;;;24.08;10.32;;;;;;;;;;10335825;28;20030;-57
2022/12/20 00:57:40;;;;;;;22.50;10.07;;;;;;;;;;10336476;28;20497;-59
2022/12/20 01:02:40;;;;;;;14.55;9.18;;;;;;;;;;10322545;28;20084;-58
2022/12/20 01:07:41;;;;;;;17.75;9.93;;;;;;;;;;10330062;28;20037;-58
2022/12/20 01:12:41;;;;;;;14.60;9.10;;;;;;;;;;10350846;28;20026;-57
2022/12/20 01:17:42;;;;;;;16.92;9.10;;;;;;;;;;10332954;28;20050;-54
2022/12/20 01:22:43;;;;;;;15.10;10.25;;;;;;;;;;10322949;28;20030;-59
2022/12/20 01:27:43;;;;;;;14.95;9.18;;;;;;;;;;10328103;28;20038;-57
2022/12/20 01:32:44;;;;;;;17.60;9.40;;;;;;;;;;10330173;28;20030;-57
2022/12/20 01:37:44;;;;;;;13.60;9.23;;;;;;;;;;10334867;28;20071;-56
2022/12/20 01:42:45;;;;;;;20.98;10.10;;;;;;;;;;10331460;28;20030;-54
2022/12/20 01:47:46;;;;;;;18.02;10.13;;;;;;;;;;10330568;28;20154;-54
2022/12/20 01:52:47;;;;;;;15.57;10.00;;;;;;;;;;10333512;28;20029;-54
2022/12/20 01:58:02;;;;;;;16.60;9.40;;;;;;;;;;10342377;28;20037;-58
2022/12/20 02:03:07;;;;;;;15.25;9.68;;;;;;;;;;10324494;28;20026;-58
2022/12/20 02:08:09;;;;;;;15.32;10.30;;;;;;;;;;10323242;28;20128;-58
2022/12/20 02:13:26;;;;;;;13.52;9.35;;;;;;;;;;10334302;28;20070;-57
2022/12/20 02:18:35;;;;;;;15.35;8.75;;;;;;;;;;10316744;28;20041;-57
2022/12/20 02:23:48;;;;;;;;;;;;;;;;;;10325274;28;20022;-58
2022/12/20 02:29:42;;;;;;;11.90;8.40;;;;;;;;;;10329102;28;19922;-58
2022/12/20 02:34:43;;;;;;;13.07;8.60;;;;;;;;;;10307818;28;20437;-57
2022/12/20 02:39:45;;;;;;;11.32;8.45;;;;;;;;;;10321788;28;20077;-56
2022/12/20 02:50:12;;;;;;;14.10;9.05;;;;;;;;;;10323252;28;20424;-54
2022/12/20 02:55:12;;;;;;;13.90;9.50;;;;;;;;;;10348564;28;20121;-55
2022/12/20 03:00:17;;;;;;;15.52;8.75;;;;;;;;;;10329317;28;20381;-58
2022/12/20 03:05:21;;;;;;;13.23;9.43;;;;;;;;;;10340204;28;20433;-54
2022/12/20 03:10:22;;;;;;;12.82;9.32;;;;;;;;;;10330148;28;20533;-51
2022/12/20 03:15:22;;;;;;;16.00;9.00;;;;;;;;;;10353419;28;20025;-54
2022/12/20 03:20:23;;;;;;;11.00;8.48;;;;;;;;;;10326215;28;20022;-49
2022/12/20 03:25:24;;;;;;;14.15;9.15;;;;;;;;;;10324570;28;20355;-52
2022/12/20 03:30:25;;;;;;;15.20;8.98;;;;;;;;;;10331791;28;20034;-52
2022/12/20 03:35:25;;;;;;;15.02;9.13;;;;;;;;;;10320751;28;20034;-55
2022/12/20 03:40:26;;;;;;;11.88;8.95;;;;;;;;;;10322614;28;20037;-53
2022/12/20 03:45:26;;;;;;;12.52;9.18;;;;;;;;;;10330920;28;20444;-53
2022/12/20 03:50:27;;;;;;;13.48;8.90;;;;;;;;;;10329313;28;20352;-55
2022/12/20 03:55:28;;;;;;;10.85;8.25;;;;;;;;;;10334515;28;20037;-54
2022/12/20 04:00:28;;;;;;;13.63;9.15;;;;;;;;;;10324379;28;20045;-54
2022/12/20 04:05:29;;;;;;;13.80;9.23;;;;;;;;;;10351164;28;20022;-53
2022/12/20 04:10:29;;;;;;;11.57;8.50;;;;;;;;;;10325003;28;20026;-52
2022/12/20 04:15:30;;;;;;;13.40;8.80;;;;;;;;;;10322911;28;20473;-54
2022/12/20 04:20:30;;;;;;;11.57;9.00;;;;;;;;;;10322903;28;20049;-52
2022/12/20 04:25:31;;;;;;;13.63;8.80;;;;;;;;;;10324998;28;20282;-54
2022/12/20 04:30:32;;;;;;;11.98;8.10;;;;;;;;;;10324472;28;20037;-54
2022/12/20 04:35:32;;;;;;;11.43;8.32;;;;;;;;;;10324655;28;20398;-54
2022/12/20 04:40:33;;;;;;;14.05;8.25;;;;;;;;;;10324342;28;20437;-55
2022/12/20 04:45:34;;;;;;;12.52;8.68;;;;;;;;;;10322697;28;20033;-56
2022/12/20 04:50:34;;;;;;;15.25;8.38;;;;;;;;;;10322406;28;20223;-55
2022/12/20 04:55:38;;;;;;;13.30;8.43;;;;;;;;;;10335686;28;20038;-55
2022/12/20 05:00:39;;;;;;;10.43;8.23;;;;;;;;;;10321925;28;20113;-55
2022/12/20 05:05:39;;;;;;;12.10;8.25;;;;;;;;;;10320613;28;20038;-55
2022/12/20 05:10:41;;;;;;;11.60;8.02;;;;;;;;;;10321097;28;20038;-53
2022/12/20 05:15:42;;;;;;;14.75;8.60;;;;;;;;;;10323766;28;20029;-56
2022/12/20 05:20:43;;;;;;;10.15;8.00;;;;;;;;;;10322907;28;20034;-53
2022/12/20 05:31:03;;;;;;;11.65;8.35;;;;;;;;;;10319234;28;20030;-53
2022/12/20 05:36:04;;;;;;;10.02;7.40;;;;;;;;;;10311804;28;20042;-55
2022/12/20 05:41:05;;;;;;;10.93;8.23;;;;;;;;;;10324201;28;20485;-53
2022/12/20 05:46:06;;;;;;;10.18;7.95;;;;;;;;;;10321893;28;20398;-53
2022/12/20 05:51:07;;;;;;;10.82;8.15;;;;;;;;;;10322516;28;20026;-53
2022/12/20 05:56:08;;;;;;;13.52;8.30;;;;;;;;;;10323823;28;20030;-53
2022/12/20 06:01:09;;;;;;;10.10;7.57;;;;;;;;;;10333403;28;20030;-57
2022/12/20 06:06:09;;;;;;;12.07;8.18;;;;;;;;;;10323506;28;20034;-57
2022/12/20 06:11:10;;;;;;;10.25;7.80;;;;;;;;;;10336281;28;20030;-56
2022/12/20 06:16:11;;;;;;;11.43;7.82;;;;;;;;;;10337192;28;20061;-58
2022/12/20 06:21:12;;;;;;;10.18;7.40;;;;;;;;;;10324094;28;20038;-57
2022/12/20 06:26:12;;;;;;;15.85;8.63;;;;;;;;;;10326401;28;20050;-55
2022/12/20 06:31:13;;;;;;;9.75;7.45;;;;;;;;;;10326737;28;20045;-53
2022/12/20 06:36:13;;;;;;;11.70;8.35;;;;;;;;;;10329764;28;20030;-58
2022/12/20 06:41:14;;;;;;;9.65;7.85;;;;;;;;;;10340387;28;20038;-54
2022/12/20 06:46:14;;;;;;;28.25;9.25;;;;;;;;;;10343921;28;20497;-62
2022/12/20 06:51:16;;;;;;;14.10;9.27;;;;;;;;;;10330067;28;20509;-56
2022/12/20 06:56:16;;;;;;;12.27;9.00;;;;;;;;;;10334877;28;20037;-56
2022/12/20 07:01:17;;;;;;;14.82;8.88;;;;;;;;;;10332524;28;20497;-53
2022/12/20 07:06:17;;;;;;;12.95;8.88;;;;;;;;;;10323118;28;20088;-50
2022/12/20 07:11:18;;;;;;;19.05;9.00;;;;;;;;;;10330385;28;20026;-50
2022/12/20 07:16:19;;;;;;;23.10;9.73;;;;;;;;;;10316162;28;20045;-54
2022/12/20 07:21:20;;;;;;;24.00;9.93;;;;;;;;;;10323835;28;20037;-50
2022/12/20 07:26:20;;;;;;;16.30;9.65;;;;;;;;;;10352207;28;20591;-50
2022/12/20 07:31:21;;;;;;;21.10;10.80;;;;;;;;;;10349479;28;20037;-49
2022/12/20 07:36:22;;;;;;;15.77;9.35;;;;;;;;;;10344982;28;20034;-50
2022/12/20 07:41:23;;;;;;;17.17;10.20;;;;;;;;;;10337992;28;20034;-49
2022/12/20 07:46:24;;;;;;;11.90;8.80;;;;;;;;;;10325291;28;20022;-51
2022/12/20 07:51:34;;;;;;;22.40;10.00;;;;;;;;;;10335176;28;20035;-50
2022/12/20 07:56:38;;;;;;;18.00;10.27;;;;;;;;;;10322851;28;20256;-52
2022/12/20 08:01:41;;;;;;;18.77;9.73;;;;;;;;;;10339451;28;20088;-50
2022/12/20 08:06:42;;;;;;;15.70;10.15;;;;;;;;;;10325790;28;20023;-52
2022/12/20 08:11:46;;;;;;;15.20;9.23;;;;;;;;;;10324756;28;20117;-49
2022/12/20 08:16:47;;;;;;;15.88;10.07;;;;;;;;;;10325494;28;20470;-52
2022/12/20 08:21:47;;;;;;;18.35;9.77;;;;;;;;;;10325680;28;20026;-58
2022/12/20 08:26:48;;;;;;;17.35;9.52;;;;;;;;;;10325025;28;20046;-50
2022/12/20 08:31:48;;;;;;;17.67;9.88;;;;;;;;;;10325449;28;20182;-50
2022/12/20 08:36:49;;;;;;;14.05;9.75;;;;;;;;;;10323114;28;20100;-52
2022/12/20 08:41:49;;;;;;;15.48;9.65;;;;;;;;;;10320329;28;20157;-49
2022/12/20 08:46:50;;;;;;;17.48;8.90;;;;;;;;;;10328621;28;20045;-53
2022/12/20 08:51:51;;;;;;;21.52;10.15;;;;;;;;;;10325616;28;20023;-50
2022/12/20 08:56:52;;;;;;;17.85;9.10;;;;;;;;;;10323116;28;20367;-54
2022/12/20 09:01:53;;;;;;;13.27;9.25;;;;;;;;;;10323581;28;20386;-49
2022/12/20 09:06:54;;;;;;;13.20;9.35;;;;;;;;;;10323312;28;20026;-54
2022/12/20 09:11:54;;;;;;;14.40;8.95;;;;;;;;;;10324519;28;20469;-54
2022/12/20 09:16:55;;;;;;;16.17;9.43;;;;;;;;;;10324167;28;20548;-54
2022/12/20 09:21:56;;;;;;;11.43;8.63;;;;;;;;;;10322917;28;20019;-55
2022/12/20 09:26:56;;;;;;;11.32;8.45;;;;;;;;;;10323082;28;20042;-53
2022/12/20 09:31:57;;;;;;;13.30;9.73;;;;;;;;;;10324220;28;20026;-53
2022/12/20 09:36:57;;;;;;;13.40;8.85;;;;;;;;;;10325543;28;20057;-50
2022/12/20 09:41:58;;;;;;;13.50;8.32;;;;;;;;;;10354193;28;20038;-49
2022/12/20 09:47:22;;;;;;;12.65;8.38;;;;;;;;;;10337022;28;20022;-62
2022/12/20 09:52:54;;;;;;;15.75;8.25;;;;;;;;;;10342933;28;20023;-51
2022/12/20 09:58:22;;;;;;;10.43;7.53;;;;;;;;;;10330479;28;20022;-50
2022/12/20 10:03:31;;;;;;;15.43;8.10;;;;;;;;;;10330069;28;20110;-54
2022/12/20 10:08:47;;;;;;;11.32;8.48;;;;;;;;;;10342327;28;20489;-56
2022/12/20 10:14:02;;;;;;;12.85;8.25;;;;;;;;;;10330303;28;20466;-55
2022/12/20 10:19:13;;;;;;;12.38;8.80;;;;;;;;;;10327060;28;20129;-55
2022/12/20 10:24:23;;;;;;;13.80;8.43;;;;;;;;;;10329128;28;20171;-50
2022/12/20 10:29:24;;;;;;;13.55;7.88;;;;;;;;;;10315796;28;20154;-55
2022/12/20 10:34:25;;;;;;;11.20;7.97;;;;;;;;;;10324741;28;20458;-53
2022/12/20 10:39:42;;;;;;;11.88;8.45;;;;;;;;;;10351234;28;20037;-50
2022/12/20 10:44:43;;;;;;;11.93;8.13;;;;;;;;;;10329548;28;20034;-49
2022/12/20 10:49:43;;;;;;;13.60;8.32;;;;;;;;;;10328654;28;20026;-60
2022/12/20 10:54:45;;;;;;;10.90;7.63;;;;;;;;;;10328503;28;20032;-49
2022/12/20 10:59:58;;;;;;;9.38;7.75;;;;;;;;;;10325049;28;20471;-61
2022/12/20 11:05:09;;;;;;;11.68;8.07;;;;;;;;;;10326218;28;20037;-62
2022/12/20 11:10:22;;;;;;;13.23;8.63;;;;;;;;;;10359643;28;20256;-50
2022/12/20 11:15:27;;;;;;;13.02;8.45;;;;;;;;;;10352007;28;20257;-53
2022/12/20 11:21:15;;;;;;;11.60;8.77;;;;;;;;;;10351055;28;20069;-54
2022/12/20 11:26:50;;;;;;;14.73;8.85;;;;;;;;;;10345878;28;20042;-49
2022/12/20 11:32:21;;;;;;;12.32;8.00;;;;;;;;;;10330389;28;20253;-53
2022/12/20 11:37:54;;;;;;;11.30;7.95;;;;;;;;;;10300211;28;20117;-54
2022/12/20 11:43:23;;;;;;;14.60;8.20;;;;;;;;;;10339211;28;20039;-50
2022/12/20 11:48:48;;;;;;;10.50;7.68;;;;;;;;;;10326636;28;20034;-52
2022/12/20 11:54:02;;;;;;;10.77;8.20;;;;;;;;;;10314460;28;20085;-51
2022/12/20 11:59:28;;;;;;;14.20;8.68;;;;;;;;;;10323887;28;20030;-52
2022/12/20 12:05:00;;;;;;;12.32;7.63;;;;;;;;;;10324615;28;20018;-55
2022/12/20 12:10:26;;;;;;;11.10;7.97;;;;;;;;;;10335680;28;20048;-49
2022/12/20 12:16:16;;;;;;;12.95;8.73;;;;;;;;;;10334844;28;20026;-55
2022/12/20 12:21:27;;;;;;;11.15;7.13;;;;;;;;;;10281264;28;20121;-56
2022/12/20 12:26:39;;;;;;;11.02;7.55;;;;;;;;;;10324700;28;20054;-57
2022/12/20 12:32:00;;;;;;;10.02;7.57;;;;;;;;;;10325754;28;20052;-56
2022/12/20 12:37:45;;;;;;;10.52;7.88;;;;;;;;;;10337940;28;20030;-54
2022/12/20 12:43:07;;;;;;;10.70;7.75;;;;;;;;;;10336160;28;20034;-59
2022/12/20 12:48:21;;;;;;;12.50;7.93;;;;;;;;;;10324884;28;20500;-54
2022/12/20 12:54:02;;;;;;;11.05;8.13;;;;;;;;;;10319065;28;20026;-59
2022/12/20 12:59:05;;;;;;;11.77;7.63;;;;;;;;;;10292009;28;20043;-50
2022/12/20 13:04:22;;;;;;;10.25;7.97;;;;;;;;;;10319538;28;20035;-55
2022/12/20 13:09:26;;;;;;;11.55;6.85;;;;;;;;;;10315368;28;20054;-51
2022/12/20 13:14:26;;;;;;;16.70;7.28;;;;;;;;;;10322776;28;20104;-60
2022/12/20 13:19:27;;;;;;;12.15;7.70;;;;;;;;;;10322495;28;20042;-52
2022/12/20 13:25:01;;;;;;;10.90;7.40;;;;;;;;;;10331631;28;20105;-58
2022/12/20 13:30:11;;;;;;;11.77;7.07;;;;;;;;;;10315450;28;20042;-54
2022/12/20 13:35:23;;;;;;;9.50;7.30;;;;;;;;;;10321323;28;20031;-56
2022/12/20 13:40:42;;;;;;;15.07;7.75;;;;;;;;;;10308841;28;20378;-57
2022/12/20 13:45:47;;;;;;;10.57;7.05;;;;;;;;;;10349878;28;20033;-52
2022/12/20 13:50:54;;;;;;;11.80;7.80;;;;;;;;;;10330295;28;20080;-55
2022/12/20 13:55:54;;;;;;;10.07;7.03;;;;;;;;;;10330382;28;20030;-50
2022/12/20 14:01:10;;;;;;;10.35;6.90;;;;;;;;;;10338257;28;20084;-51
2022/12/20 14:06:14;;;;;;;13.55;6.93;;;;;;;;;;10327885;28;20162;-49
2022/12/20 14:11:21;;;;;;;11.25;7.40;;;;;;;;;;10337269;28;20110;-53
2022/12/20 14:16:24;;;;;;;11.30;6.82;;;;;;;;;;10321475;28;20070;-51
2022/12/20 14:21:26;;;;;;;9.85;6.53;;;;;;;;;;10322209;28;20084;-56
2022/12/20 14:26:32;;;;;;;9.02;6.35;;;;;;;;;;10320777;28;20053;-50
2022/12/20 14:31:32;;;;;;;9.60;6.80;;;;;;;;;;10330695;28;20019;-59
2022/12/20 14:36:33;;;;;;;10.48;7.03;;;;;;;;;;10340740;28;20027;-55
2022/12/20 14:41:39;;;;;;;9.65;6.00;;;;;;;;;;10340872;28;20027;-54
2022/12/20 14:46:48;;;;;;;10.75;7.03;;;;;;;;;;10328003;28;20030;-51
2022/12/20 14:51:50;;;;;;;9.90;6.30;;;;;;;;;;10328409;28;20056;-53
2022/12/20 14:56:51;;;;;;;9.00;6.65;;;;;;;;;;10328684;28;20454;-54
2022/12/20 15:01:53;;;;;;;9.82;6.78;;;;;;;;;;10354576;28;20018;-53
2022/12/20 15:06:54;;;;;;;9.48;6.70;;;;;;;;;;10342387;28;20378;-49
2022/12/20 15:11:56;;;;;;;9.55;6.40;;;;;;;;;;10328210;28;20069;-52
2022/12/20 15:16:57;;;;;;;11.00;6.85;;;;;;;;;;10327843;28;20394;-55
2022/12/20 15:21:57;;;;;;;8.90;6.32;;;;;;;;;;10329914;28;20030;-53
2022/12/20 15:26:58;;;;;;;11.32;6.00;;;;;;;;;;10378480;23;20057;-61
2022/12/20 15:32:24;;;;;;;9.13;6.40;;;;;;;;;;10397328;28;20025;-66
2022/12/20 15:37:25;;;;;;;9.18;5.93;;;;;;;;;;10374893;28;20042;-61
2022/12/20 15:42:25;;;;;;;9.82;6.35;;;;;;;;;;10367024;28;20030;-67
2022/12/20 15:47:26;;;;;;;10.10;6.85;;;;;;;;;;10365662;28;20030;-63
2022/12/20 15:52:27;;;;;;;8.27;6.03;;;;;;;;;;10364308;28;20030;-67
2022/12/20 15:57:28;;;;;;;7.70;5.93;;;;;;;;;;10353145;28;20026;-65
2022/12/20 16:02:31;;;;;;;7.97;6.20;;;;;;;;;;10366164;28;20363;-65
2022/12/20 16:07:31;;;;;;;8.02;6.35;;;;;;;;;;10366103;28;20025;-70
2022/12/20 16:12:35;;;;;;;8.52;5.82;;;;;;;;;;10365481;28;20418;-64
2022/12/20 16:17:35;;;;;;;8.05;5.70;;;;;;;;;;10363392;28;20108;-69
2022/12/20 16:22:36;;;;;;;8.93;5.60;;;;;;;;;;10362638;28;20023;-71
2022/12/20 16:27:36;;;;;;;10.45;6.28;;;;;;;;;;10361002;28;20375;-70
2022/12/20 16:32:37;;;;;;;9.10;6.07;;;;;;;;;;10364742;28;20492;-71
2022/12/20 16:37:38;;;;;;;21.52;6.53;;;;;;;;;;10364726;28;20017;-70
2022/12/20 16:42:38;;;;;;;7.90;6.28;;;;;;;;;;10364557;28;20030;-66
2022/12/20 16:47:39;;;;;;;10.10;6.35;;;;;;;;;;10362175;28;20022;-68
2022/12/20 16:52:40;;;;;;;10.43;6.70;;;;;;;;;;10364608;28;20021;-69
2022/12/20 16:57:40;;;;;;;8.10;6.28;;;;;;;;;;10359938;28;20115;-71
2022/12/20 17:02:41;;;;;;;8.07;6.22;;;;;;;;;;10360411;28;20026;-68
2022/12/20 17:07:41;;;;;;;8.23;6.50;;;;;;;;;;10356374;28;20025;-71
2022/12/20 17:12:43;;;;;;;8.48;6.22;;;;;;;;;;10360874;28;20026;-67
2022/12/20 17:17:44;;;;;;;8.50;6.53;;;;;;;;;;10360145;28;20389;-72
2022/12/20 17:22:49;;;;;;;9.20;6.18;;;;;;;;;;10362422;28;20026;-70
2022/12/20 17:27:51;;;;;;;12.32;6.72;;;;;;;;;;10361096;28;20049;-69
2022/12/20 17:32:52;;;;;;;9.68;6.68;;;;;;;;;;10361254;28;21629;-71
2022/12/20 17:37:55;;;;;;;9.30;6.32;;;;;;;;;;10360296;28;20036;-70
2022/12/20 17:42:55;;;;;;;8.98;5.90;;;;;;;;;;10374352;28;20469;-72
2022/12/20 17:47:57;;;;;;;9.70;6.50;;;;;;;;;;10350472;28;20024;-67
2022/12/20 17:52:57;;;;;;;11.82;7.05;;;;;;;;;;10356298;28;20473;-72
2022/12/20 17:57:58;;;;;;;8.90;6.60;;;;;;;;;;10355282;28;20099;-71
2022/12/20 18:02:59;;;;;;;10.77;6.63;;;;;;;;;;10357845;28;20540;-66
2022/12/20 18:07:59;;;;;;;9.60;6.90;;;;;;;;;;10359949;28;20457;-70
2022/12/20 18:13:00;;;;;;;9.55;6.35;;;;;;;;;;10358493;28;20550;-69
2022/12/20 18:18:01;;;;;;;11.70;7.55;;;;;;;;;;10363220;28;20033;-72
2022/12/20 18:23:01;;;;;;;9.48;6.95;;;;;;;;;;10369720;28;20390;-71
2022/12/20 18:28:02;;;;;;;13.00;7.68;;;;;;;;;;10366076;28;20034;-72
2022/12/20 18:33:03;;;;;;;15.25;8.48;;;;;;;;;;10364276;28;20088;-71
2022/12/20 18:38:03;;;;;;;18.10;8.48;;;;;;;;;;10365348;28;20053;-71
2022/12/20 18:43:04;;;;;;;24.77;8.63;;;;;;;;;;10367831;28;20084;-71
2022/12/20 18:48:05;;;;;;;21.00;9.20;;;;;;;;;;10367994;28;20034;-69
2022/12/20 18:53:06;;;;;;;16.35;8.73;;;;;;;;;;10351389;28;20037;-65
2022/12/20 18:58:06;;;;;;;21.27;9.35;;;;;;;;;;10361609;28;20292;-70
2022/12/20 19:03:07;;;;;;;16.00;9.10;;;;;;;;;;10365847;28;20257;-70
2022/12/20 19:08:08;;;;;;;22.75;8.90;;;;;;;;;;10354174;28;20061;-67
2022/12/20 19:13:08;;;;;;;15.57;8.50;;;;;;;;;;10362791;28;20029;-72
2022/12/20 19:18:09;;;;;;;22.27;9.07;;;;;;;;;;10355889;28;20030;-72
2022/12/20 19:23:10;;;;;;;18.92;8.40;;;;;;;;;;10362271;28;20126;-70
2022/12/20 19:28:10;;;;;;;22.35;8.75;;;;;;;;;;10356857;28;20046;-71
2022/12/20 19:33:11;;;;;;;17.17;9.45;;;;;;;;;;10362354;28;20493;-72
2022/12/20 19:38:11;;;;;;;15.02;8.65;;;;;;;;;;10360700;28;20393;-70
2022/12/20 19:43:12;;;;;;;25.48;9.38;;;;;;;;;;10356214;28;20108;-71
2022/12/20 19:48:13;;;;;;;21.85;9.35;;;;;;;;;;10368108;28;20022;-72
2022/12/20 19:53:14;;;;;;;15.82;8.90;;;;;;;;;;10360342;28;20367;-72
2022/12/20 19:58:14;;;;;;;13.25;9.43;;;;;;;;;;10361176;28;20440;-72
2022/12/20 20:03:15;;;;;;;20.27;9.40;;;;;;;;;;10365185;28;20025;-71
2022/12/20 20:08:16;;;;;;;15.13;9.15;;;;;;;;;;10364668;28;20026;-71
2022/12/20 20:13:16;;;;;;;14.88;8.90;;;;;;;;;;10366431;28;20025;-69
2022/12/20 20:18:17;;;;;;;18.20;9.50;;;;;;;;;;10363687;28;20029;-72
2022/12/20 20:23:18;;;;;;;13.07;8.63;;;;;;;;;;10364606;28;20079;-72
2022/12/20 20:28:19;;;;;;;13.65;8.50;;;;;;;;;;10364109;28;20573;-73
2022/12/20 20:33:20;;;;;;;17.73;8.55;;;;;;;;;;10362552;28;20228;-72
2022/12/20 20:38:21;;;;;;;17.40;8.70;;;;;;;;;;10352928;28;20671;-72
2022/12/20 20:43:22;;;;;;;13.68;8.32;;;;;;;;;;10360052;28;20100;-67
2022/12/20 20:48:23;;;;;;;12.45;8.38;;;;;;;;;;10360969;28;20488;-69
2022/12/20 20:53:24;;;;;;;13.68;8.68;;;;;;;;;;10352078;28;20034;-63
2022/12/20 20:58:24;;;;;;;12.48;7.90;;;;;;;;;;10358442;28;20040;-67
2022/12/20 21:03:27;;;;;;;11.63;8.00;;;;;;;;;;10361045;28;20036;-69
2022/12/20 21:08:28;;;;;;;14.93;8.40;;;;;;;;;;10358948;28;20034;-72
2022/12/20 21:13:28;;;;;;;15.75;8.63;;;;;;;;;;10364421;28;20029;-67
2022/12/20 21:18:29;;;;;;;12.60;7.90;;;;;;;;;;10350993;28;20088;-67
2022/12/20 21:23:30;;;;;;;13.07;8.45;;;;;;;;;;10363665;28;20027;-70
2022/12/20 21:28:31;;;;;;;17.75;8.73;;;;;;;;;;10363986;28;20042;-70
2022/12/20 21:33:31;;;;;;;10.50;7.75;;;;;;;;;;10363976;28;20026;-69
2022/12/20 21:38:33;;;;;;;12.77;7.97;;;;;;;;;;10363333;28;20034;-71
2022/12/20 21:43:34;;;;;;;12.80;8.35;;;;;;;;;;10365721;28;20389;-67
2022/12/20 21:48:34;;;;;;;15.93;8.45;;;;;;;;;;10370729;28;20032;-70
2022/12/20 21:53:46;;;;;;;12.65;7.80;;;;;;;;;;10371228;28;20026;-73
2022/12/20 21:58:47;;;;;;;12.70;8.07;;;;;;;;;;10371443;28;20034;-67
2022/12/20 22:03:56;;;;;;;14.95;8.45;;;;;;;;;;10356715;28;20018;-70
2022/12/20 22:08:58;;;;;;;12.60;8.23;;;;;;;;;;10348384;28;20038;-61
2022/12/20 22:13:58;;;;;;;10.45;7.60;;;;;;;;;;10360910;28;20727;-68
2022/12/20 22:19:00;;;;;;;12.43;8.15;;;;;;;;;;10346317;28;20360;-72
2022/12/20 22:24:02;;;;;;;15.02;8.90;;;;;;;;;;10367896;28;20038;-71
2022/12/20 22:29:04;;;;;;;18.70;8.88;;;;;;;;;;10368703;28;20073;-69
2022/12/20 22:34:05;;;;;;;17.73;8.88;;;;;;;;;;10369023;28;20030;-70
2022/12/20 22:39:06;;;;;;;17.60;8.30;;;;;;;;;;10357662;28;20477;-72
2022/12/20 22:44:06;;;;;;;13.15;7.63;;;;;;;;;;10352139;28;20065;-67
2022/12/20 22:49:14;;;;;;;15.27;8.18;;;;;;;;;;10362954;28;20025;-65
2022/12/20 22:54:14;;;;;;;16.35;9.43;;;;;;;;;;10356477;28;20116;-65
2022/12/20 22:59:15;;;;;;;21.60;9.95;;;;;;;;;;10362716;28;20041;-71
2022/12/20 23:04:16;;;;;;;16.98;9.70;;;;;;;;;;10366932;28;20018;-68
2022/12/20 23:09:16;;;;;;;17.30;9.25;;;;;;;;;;10367192;28;20045;-60
2022/12/20 23:24:58;;;;;;;12.68;8.85;;;;;;;;;;10364602;28;20026;-60
2022/12/20 23:29:59;;;;;;;13.70;8.90;;;;;;;;;;10364803;28;20030;-58
2022/12/20 23:35:00;;;;;;;13.25;8.90;;;;;;;;;;10363785;28;20040;-60
2022/12/20 23:40:00;;;;;;;14.02;9.15;;;;;;;;;;10363989;28;20378;-59
2022/12/20 23:45:01;;;;;;;15.35;9.20;;;;;;;;;;10361531;28;20033;-62
2022/12/20 23:50:02;;;;;;;14.02;9.10;;;;;;;;;;10366655;28;20088;-59
2022/12/20 23:55:04;;;;;;;13.23;9.00;;;;;;;;;;10367942;28;20429;-59
